Time,TemperatureF,DewpointF,PressureIn,WindDirection,WindDirectionDegrees,WindSpeedMPH,WindSpeedGustMPH,Humidity,HourlyPrecipIn,Conditions,Clouds,dailyrainin,SolarRadiationWatts/m^2,SoftwareType,DateUTC
2013-08-03 00:03:00,46.7,45.9,30.12,ENE,59,0.0,0.0,97,0.00,RA,,0.00,0.0,WeatherDisplay:10.37,2013-08-02 12:03:00,
2013-08-03 00:08:00,46.7,45.9,30.12,ENE,59,0.0,0.0,97,0.00,RA,,0.00,0.0,WeatherDisplay:10.37,2013-08-02 12:08:00,
2013-08-03 00:13:00,46.6,45.8,30.12,ENE,59,0.0,0.0,97,0.00,CLR,,0.00,0.0,WeatherDisplay:10.37,2013-08-02 12:13:00,
2013-08-03 00:18:00,46.6,45.8,30.12,ENE,59,0.0,0.0,97,0.00,CLR,,0.00,0.0,WeatherDisplay:10.37,2013-08-02 12:18:00,
2013-08-03 00:23:00,46.6,45.8,30.12,ENE,59,0.0,0.0,97,0.00,CLR,,0.00,0.0,WeatherDisplay:10.37,2013-08-02 12:23:00,
2013-08-03 00:28:00,46.6,45.8,30.12,ENE,59,0.0,0.0,97,0.00,CLR,,0.00,0.0,WeatherDisplay:10.37,2013-08-02 12:28:00,
2013-08-03 00:33:00,46.6,45.8,30.11,ENE,59,0.0,0.0,97,0.00,CLR,,0.00,0.0,WeatherDisplay:10.37,2013-08-02 12:33:00,
2013-08-03 00:38:00,46.6,45.8,30.11,ENE,59,0.0,0.0,97,0.00,CLR,,0.00,0.0,WeatherDisplay:10.37,2013-08-02 12:38:00,
2013-08-03 00:43:00,46.6,45.8,30.11,ENE,59,0.1,1.2,97,0.00,CLR,,0.00,0.0,WeatherDisplay:10.37,2013-08-02 12:43:00,
2013-08-03 00:48:00,46.6,45.8,30.11,ENE,59,0.0,0.0,97,0.00,CLR,,0.00,0.0,WeatherDisplay:10.37,2013-08-02 12:48:00,
2013-08-03 00:53:00,46.5,45.7,30.11,ENE,59,0.0,0.0,97,0.00,CLR,,0.00,0.0,WeatherDisplay:10.37,2013-08-02 12:53:00,
2013-08-03 00:58:00,46.4,45.6,30.11,ENE,59,0.0,0.0,97,0.00,CLR,,0.00,0.0,WeatherDisplay:10.37,2013-08-02 12:58:00,
2013-08-03 01:03:00,46.3,45.5,30.11,ENE,59,0.0,0.0,97,0.00,CLR,,0.00,0.0,WeatherDisplay:10.37,2013-08-02 13:03:00,
2013-08-03 01:08:00,46.3,45.5,30.10,ENE,59,0.0,0.0,97,0.00,CLR,,0.00,0.0,WeatherDisplay:10.37,2013-08-02 13:08:00,
2013-08-03 01:13:00,46.3,45.5,30.10,ENE,59,0.0,0.0,97,0.00,CLR,,0.00,0.0,WeatherDisplay:10.37,2013-08-02 13:13:00,
2013-08-03 01:18:00,46.3,45.5,30.10,ENE,59,0.0,0.0,97,0.00,CLR,,0.00,0.0,WeatherDisplay:10.37,2013-08-02 13:18:00,
2013-08-03 01:23:00,46.4,45.6,30.10,ENE,59,0.0,0.0,97,0.00,CLR,,0.00,0.0,WeatherDisplay:10.37,2013-08-02 13:23:00,
2013-08-03 01:28:00,46.4,45.6,30.10,ENE,59,0.0,0.0,97,0.00,CLR,,0.00,0.0,WeatherDisplay:10.37,2013-08-02 13:28:00,
2013-08-03 01:33:00,46.4,45.6,30.10,ENE,59,0.0,0.0,97,0.00,CLR,,0.00,0.0,WeatherDisplay:10.37,2013-08-02 13:33:00,
2013-08-03 01:38:00,46.4,45.6,30.10,ENE,59,0.1,1.2,97,0.00,CLR,,0.00,0.0,WeatherDisplay:10.37,2013-08-02 13:38:00,
2013-08-03 01:43:00,46.4,45.6,30.09,ENE,59,0.0,0.0,97,0.00,CLR,,0.00,0.0,WeatherDisplay:10.37,2013-08-02 13:43:00,
2013-08-03 01:48:00,46.5,45.7,30.09,ENE,59,0.0,0.0,97,0.00,CLR,,0.00,0.0,WeatherDisplay:10.37,2013-08-02 13:48:00,
2013-08-03 01:53:00,46.5,45.7,30.09,ENE,59,0.5,1.0,97,0.00,CLR,,0.00,0.0,WeatherDisplay:10.37,2013-08-02 13:53:00,
2013-08-03 01:58:00,46.5,45.7,30.09,ENE,59,0.0,0.0,97,0.00,CLR,,0.00,0.0,WeatherDisplay:10.37,2013-08-02 13:58:00,
2013-08-03 02:03:00,46.5,45.7,30.09,ENE,59,0.3,1.2,97,0.00,CLR,,0.00,0.0,WeatherDisplay:10.37,2013-08-02 14:03:00,
2013-08-03 02:08:00,46.5,45.7,30.09,ENE,59,0.0,0.0,97,0.00,CLR,,0.00,0.0,WeatherDisplay:10.37,2013-08-02 14:08:00,
2013-08-03 02:13:00,46.5,45.7,30.09,ENE,59,0.0,0.0,97,0.00,CLR,,0.00,0.0,WeatherDisplay:10.37,2013-08-02 14:13:00,
2013-08-03 02:18:00,46.5,45.7,30.08,ENE,59,0.0,0.0,97,0.00,CLR,,0.00,0.0,WeatherDisplay:10.37,2013-08-02 14:18:00,
2013-08-03 02:23:00,46.6,45.8,30.08,ENE,59,0.0,0.0,97,0.01,RA,,0.01,0.0,WeatherDisplay:10.37,2013-08-02 14:23:00,
2013-08-03 02:28:00,46.6,46.1,30.08,ENE,59,0.0,0.0,98,0.01,RA,,0.01,0.0,WeatherDisplay:10.37,2013-08-02 14:28:00,
2013-08-03 02:33:00,46.6,45.8,30.08,ENE,59,0.1,1.2,97,0.01,,,0.01,0.0,WeatherDisplay:10.37,2013-08-02 14:33:00,
2013-08-03 02:38:00,46.6,45.8,30.08,ENE,59,0.0,0.0,97,0.01,CLR,,0.01,0.0,WeatherDisplay:10.37,2013-08-02 14:38:00,
2013-08-03 02:43:00,46.6,46.1,30.07,ENE,59,0.0,0.0,98,0.01,CLR,,0.01,0.0,WeatherDisplay:10.37,2013-08-02 14:43:00,
2013-08-03 02:48:00,46.6,46.1,30.08,ENE,59,0.0,0.0,98,0.01,CLR,,0.01,0.0,WeatherDisplay:10.37,2013-08-02 14:48:00,
2013-08-03 02:53:00,46.7,46.2,30.07,ENE,59,0.0,0.0,98,0.01,CLR,,0.01,0.0,WeatherDisplay:10.37,2013-08-02 14:53:00,
2013-08-03 02:58:00,46.7,46.2,30.07,ENE,59,0.0,0.0,98,0.01,CLR,,0.01,0.0,WeatherDisplay:10.37,2013-08-02 14:58:00,
2013-08-03 03:03:00,46.7,46.2,30.07,ENE,59,0.1,0.0,98,0.01,CLR,,0.01,0.0,WeatherDisplay:10.37,2013-08-02 15:03:00,
2013-08-03 03:08:00,46.7,46.2,30.07,ENE,59,0.0,0.0,98,0.01,CLR,,0.01,0.0,WeatherDisplay:10.37,2013-08-02 15:08:00,
2013-08-03 03:13:00,46.7,46.2,30.07,ENE,59,0.0,0.0,98,0.01,CLR,,0.01,0.0,WeatherDisplay:10.37,2013-08-02 15:13:00,
2013-08-03 03:18:00,46.8,46.3,30.06,ENE,59,0.0,0.0,98,0.01,CLR,,0.01,0.0,WeatherDisplay:10.37,2013-08-02 15:18:00,
2013-08-03 03:23:00,46.9,46.4,30.06,ENE,59,0.0,0.0,98,0.00,CLR,,0.01,0.0,WeatherDisplay:10.37,2013-08-02 15:23:00,
2013-08-03 03:28:00,46.9,46.4,30.06,ENE,59,0.0,0.0,98,0.00,CLR,,0.01,0.0,WeatherDisplay:10.37,2013-08-02 15:28:00,
2013-08-03 03:33:00,46.9,46.4,30.06,ENE,59,0.0,0.0,98,0.00,CLR,,0.01,0.0,WeatherDisplay:10.37,2013-08-02 15:33:00,
2013-08-03 03:38:00,46.9,46.4,30.06,ENE,59,0.0,0.0,98,0.00,CLR,,0.01,0.0,WeatherDisplay:10.37,2013-08-02 15:38:00,
2013-08-03 03:43:00,46.9,46.4,30.06,ENE,59,0.0,0.0,98,0.00,CLR,,0.01,0.0,WeatherDisplay:10.37,2013-08-02 15:43:00,
2013-08-03 03:48:00,46.9,46.4,30.05,ENE,59,0.0,0.0,98,0.00,CLR,,0.02,0.0,WeatherDisplay:10.37,2013-08-02 15:48:00,
2013-08-03 03:53:00,46.9,46.4,30.05,ENE,59,0.0,0.0,98,0.01,RA,,0.02,0.0,WeatherDisplay:10.37,2013-08-02 15:53:00,
2013-08-03 03:58:00,46.9,46.4,30.05,ENE,59,0.0,0.0,98,0.01,RA,,0.02,0.0,WeatherDisplay:10.37,2013-08-02 15:58:00,
2013-08-03 04:03:00,47.0,46.5,30.05,ENE,59,0.0,0.0,98,0.01,CLR,,0.02,0.0,WeatherDisplay:10.37,2013-08-02 16:03:00,
2013-08-03 04:08:00,47.0,46.5,30.05,ENE,59,0.0,0.0,98,0.01,CLR,,0.02,0.0,WeatherDisplay:10.37,2013-08-02 16:08:00,
2013-08-03 04:13:00,47.0,46.5,30.05,ENE,59,0.0,0.0,98,0.02,RA,,0.02,0.0,WeatherDisplay:10.37,2013-08-02 16:13:00,
2013-08-03 04:18:00,47.0,46.5,30.05,ENE,59,0.0,0.0,98,0.02,RA,,0.03,0.0,WeatherDisplay:10.37,2013-08-02 16:18:00,
2013-08-03 04:23:00,47.1,46.6,30.04,ENE,59,0.0,1.2,98,0.02,RA,,0.03,0.0,WeatherDisplay:10.37,2013-08-02 16:23:00,
2013-08-03 04:28:00,47.1,46.6,30.04,ENE,59,1.9,2.3,98,0.02,,,0.03,0.0,WeatherDisplay:10.37,2013-08-02 16:28:00,
2013-08-03 04:33:00,47.1,46.6,30.04,ENE,59,0.0,0.0,98,0.02,CLR,,0.03,0.0,WeatherDisplay:10.37,2013-08-02 16:33:00,
2013-08-03 04:38:00,47.1,46.6,30.04,ENE,59,0.0,0.0,98,0.02,CLR,,0.03,0.0,WeatherDisplay:10.37,2013-08-02 16:38:00,
2013-08-03 04:43:00,47.1,46.6,30.04,ENE,59,0.0,0.0,98,0.02,CLR,,0.03,0.0,WeatherDisplay:10.37,2013-08-02 16:43:00,
2013-08-03 04:48:00,47.1,46.6,30.04,ENE,59,0.0,0.0,98,0.02,CLR,,0.04,0.0,WeatherDisplay:10.37,2013-08-02 16:48:00,
2013-08-03 04:53:00,47.2,46.7,30.04,ENE,59,0.3,2.3,98,0.02,RA,,0.04,0.0,WeatherDisplay:10.37,2013-08-02 16:53:00,
2013-08-03 04:58:00,47.4,46.9,30.03,ENE,59,0.0,0.0,98,0.02,RA,,0.04,0.0,WeatherDisplay:10.37,2013-08-02 16:58:00,
2013-08-03 05:03:00,47.6,47.1,30.03,East,92,2.8,4.0,98,0.02,CLR,,0.04,0.0,WeatherDisplay:10.37,2013-08-02 17:03:00,
2013-08-03 05:08:00,48.0,47.5,30.03,East,92,0.7,1.2,98,0.02,CLR,,0.04,0.0,WeatherDisplay:10.37,2013-08-02 17:08:00,
2013-08-03 05:13:00,47.9,47.4,30.03,NNE,14,2.9,3.5,98,0.02,CLR,,0.04,0.0,WeatherDisplay:10.37,2013-08-02 17:13:00,
2013-08-03 05:18:00,47.8,47.3,30.03,NNW,335,0.1,1.2,98,0.01,CLR,,0.04,0.0,WeatherDisplay:10.37,2013-08-02 17:18:00,
2013-08-03 05:23:00,47.7,47.2,30.03,NE,37,1.1,4.6,98,0.01,CLR,,0.05,0.0,WeatherDisplay:10.37,2013-08-02 17:23:00,
2013-08-03 05:28:00,47.8,47.3,30.03,North,5,1.7,3.5,98,0.02,RA,,0.05,0.0,WeatherDisplay:10.37,2013-08-02 17:28:00,
2013-08-03 05:33:00,47.9,47.4,30.03,ENE,78,1.9,3.5,98,0.02,RA,,0.06,0.0,WeatherDisplay:10.37,2013-08-02 17:33:00,
2013-08-03 05:38:00,48.0,47.5,30.02,East,90,4.1,9.2,98,0.02,RA,,0.06,0.0,WeatherDisplay:10.37,2013-08-02 17:38:00,
2013-08-03 05:43:00,48.4,47.9,30.03,NNE,25,2.0,4.6,98,0.02,RA,,0.06,0.0,WeatherDisplay:10.37,2013-08-02 17:43:00,
2013-08-03 05:48:00,48.4,47.9,30.03,NNE,32,2.3,4.0,98,0.02,CLR,,0.06,0.0,WeatherDisplay:10.37,2013-08-02 17:48:00,
2013-08-03 05:53:00,48.3,47.8,30.03,NNE,18,1.7,4.0,98,0.02,CLR,,0.06,0.0,WeatherDisplay:10.37,2013-08-02 17:53:00,
2013-08-03 05:58:00,48.2,47.7,30.03,ENE,63,1.0,3.5,98,0.02,CLR,,0.06,0.0,WeatherDisplay:10.37,2013-08-02 17:58:00,
2013-08-03 06:03:00,48.3,47.8,30.02,ENE,76,1.9,3.5,98,0.02,CLR,,0.06,0.0,WeatherDisplay:10.37,2013-08-02 18:03:00,
2013-08-03 06:08:00,48.4,47.9,30.02,ENE,64,0.0,3.5,98,0.02,CLR,,0.06,0.0,WeatherDisplay:10.37,2013-08-02 18:08:00,
2013-08-03 06:13:00,48.3,47.8,30.02,NE,53,1.3,3.5,98,0.02,CLR,,0.06,0.0,WeatherDisplay:10.37,2013-08-02 18:13:00,
2013-08-03 06:18:00,48.4,47.9,30.02,North,5,0.5,2.0,98,0.02,CLR,,0.06,0.0,WeatherDisplay:10.37,2013-08-02 18:18:00,
2013-08-03 06:23:00,48.5,48.0,30.02,ENE,65,1.0,3.5,98,0.02,CLR,,0.06,0.0,WeatherDisplay:10.37,2013-08-02 18:23:00,
2013-08-03 06:28:00,48.5,48.0,30.02,NE,53,1.7,3.5,98,0.02,RA,,0.07,0.0,WeatherDisplay:10.37,2013-08-02 18:28:00,
2013-08-03 06:33:00,48.7,48.2,30.02,ENE,76,3.1,10.4,98,0.02,RA,,0.07,0.0,WeatherDisplay:10.37,2013-08-02 18:33:00,
2013-08-03 06:38:00,48.8,48.3,30.02,ENE,57,3.4,6.0,98,0.02,,,0.07,0.0,WeatherDisplay:10.37,2013-08-02 18:38:00,
2013-08-03 06:43:00,48.9,48.4,30.02,East,94,1.5,3.5,98,0.02,CLR,,0.07,0.0,WeatherDisplay:10.37,2013-08-02 18:43:00,
2013-08-03 06:48:00,49.1,48.6,30.02,ENE,74,3.0,6.9,98,0.02,CLR,,0.07,0.0,WeatherDisplay:10.37,2013-08-02 18:48:00,
2013-08-03 06:53:00,49.2,48.7,30.02,ENE,63,2.2,6.0,98,0.02,CLR,,0.07,0.0,WeatherDisplay:10.37,2013-08-02 18:53:00,
2013-08-03 06:58:00,49.3,48.8,30.02,ENE,69,5.6,10.4,98,0.02,CLR,,0.07,0.0,WeatherDisplay:10.37,2013-08-02 18:58:00,
2013-08-03 07:03:00,49.3,48.8,30.02,NE,55,2.7,5.0,98,0.02,CLR,,0.07,0.0,WeatherDisplay:10.37,2013-08-02 19:03:00,
2013-08-03 07:08:00,49.4,48.6,30.02,ENE,76,6.1,12.7,97,0.02,CLR,,0.07,0.0,WeatherDisplay:10.37,2013-08-02 19:08:00,
2013-08-03 07:13:00,49.4,48.6,30.02,NE,45,2.6,11.5,97,0.02,OVC,,0.07,0.0,WeatherDisplay:10.37,2013-08-02 19:13:00,
2013-08-03 07:18:00,49.4,48.6,30.02,ESE,111,3.7,10.4,97,0.02,OVC,,0.07,0.0,WeatherDisplay:10.37,2013-08-02 19:18:00,
2013-08-03 07:23:00,49.5,48.7,30.02,East,80,5.1,15.0,97,0.02,OVC,,0.07,0.0,WeatherDisplay:10.37,2013-08-02 19:23:00,
2013-08-03 07:28:00,49.5,48.7,30.02,ENE,75,8.0,11.5,97,0.00,OVC,,0.07,0.0,WeatherDisplay:10.37,2013-08-02 19:28:00,
2013-08-03 07:33:00,49.6,48.5,30.02,ENE,63,7.7,11.0,96,0.00,OVC,,0.07,0.0,WeatherDisplay:10.37,2013-08-02 19:33:00,
2013-08-03 07:39:00,49.6,48.5,30.02,ENE,71,3.1,5.0,96,0.00,OVC,,0.07,0.0,WeatherDisplay:10.37,2013-08-02 19:39:00,
2013-08-03 07:44:00,49.6,48.5,30.02,East,94,5.9,10.4,96,0.00,OVC,,0.07,5.0,WeatherDisplay:10.37,2013-08-02 19:44:00,
2013-08-03 07:49:00,49.5,48.4,30.02,East,90,5.5,9.2,96,0.00,FEW,,0.07,7.0,WeatherDisplay:10.37,2013-08-02 19:49:00,
2013-08-03 07:54:00,49.5,48.4,30.02,ENE,75,7.9,11.5,96,0.00,FEW,,0.07,12.0,WeatherDisplay:10.37,2013-08-02 19:54:00,
2013-08-03 07:59:00,49.6,48.5,30.02,ENE,63,2.7,10.4,96,0.00,SCT,,0.07,14.0,WeatherDisplay:10.37,2013-08-02 19:59:00,
2013-08-03 08:04:00,49.6,48.8,30.02,ENE,63,1.8,6.9,97,0.00,SCT,,0.07,21.0,WeatherDisplay:10.37,2013-08-02 20:04:00,
2013-08-03 08:09:00,49.7,48.9,30.02,ENE,63,8.2,12.7,97,0.00,SCT,,0.07,23.0,WeatherDisplay:10.37,2013-08-02 20:09:00,
2013-08-03 08:14:00,49.8,49.0,30.02,East,101,4.9,8.1,97,0.00,SCT,,0.07,26.0,WeatherDisplay:10.37,2013-08-02 20:14:00,
2013-08-03 08:19:00,49.8,48.7,30.02,ESE,106,5.4,10.0,96,0.00,BKN,,0.07,25.0,WeatherDisplay:10.37,2013-08-02 20:19:00,
2013-08-03 08:24:00,49.9,48.8,30.02,NNE,26,6.4,11.5,96,0.00,SCT,,0.07,32.0,WeatherDisplay:10.37,2013-08-02 20:24:00,
2013-08-03 08:29:00,49.9,48.8,30.02,ENE,68,4.9,8.1,96,0.00,BKN,,0.07,30.0,WeatherDisplay:10.37,2013-08-02 20:29:00,
2013-08-03 08:34:00,50.0,48.9,30.02,ENE,67,9.2,15.0,96,0.01,RA,,0.08,33.0,WeatherDisplay:10.37,2013-08-02 20:34:00,
2013-08-03 08:39:00,50.0,48.9,30.02,NNE,32,4.2,10.4,96,0.01,RA,,0.08,33.0,WeatherDisplay:10.37,2013-08-02 20:39:00,
2013-08-03 08:44:00,50.1,49.0,30.02,East,84,6.8,11.0,96,0.01,BKN,,0.08,39.0,WeatherDisplay:10.37,2013-08-02 20:44:00,
2013-08-03 08:49:00,50.2,49.1,30.03,ENE,76,3.6,6.9,96,0.01,BKN,,0.08,37.0,WeatherDisplay:10.37,2013-08-02 20:49:00,
2013-08-03 08:54:00,50.3,49.2,30.03,ESE,121,4.5,11.5,96,0.01,BKN,,0.08,51.0,WeatherDisplay:10.37,2013-08-02 20:54:00,
2013-08-03 08:59:00,50.4,49.3,30.02,ENE,71,5.2,11.5,96,0.01,BKN,,0.08,69.0,WeatherDisplay:10.37,2013-08-02 20:59:00,
2013-08-03 09:04:00,50.5,49.1,30.02,East,100,5.6,13.8,95,0.01,SCT,,0.08,54.0,WeatherDisplay:10.37,2013-08-02 21:04:00,
2013-08-03 09:09:00,50.6,49.2,30.02,ENE,78,8.6,17.3,95,0.01,BKN,,0.08,54.0,WeatherDisplay:10.37,2013-08-02 21:09:00,
2013-08-03 09:14:00,50.6,49.2,30.02,ESE,105,2.8,8.0,95,0.01,BKN,,0.08,62.0,WeatherDisplay:10.37,2013-08-02 21:14:00,
2013-08-03 09:19:00,50.7,49.0,30.02,East,84,5.7,12.7,94,0.01,BKN,,0.08,79.0,WeatherDisplay:10.37,2013-08-02 21:19:00,
2013-08-03 09:24:00,50.7,49.0,30.02,ENE,61,4.0,9.0,94,0.01,BKN,,0.08,62.0,WeatherDisplay:10.37,2013-08-02 21:24:00,
2013-08-03 09:29:00,50.7,49.0,30.02,NE,44,8.9,15.0,94,0.01,BKN,,0.08,76.0,WeatherDisplay:10.37,2013-08-02 21:29:00,
2013-08-03 09:34:00,50.6,49.2,30.02,ENE,59,10.1,15.0,95,0.00,BKN,,0.08,100.0,WeatherDisplay:10.37,2013-08-02 21:34:00,
2013-08-03 09:39:00,50.6,49.2,30.02,ENE,71,8.8,13.8,95,0.00,SCT,,0.08,128.0,WeatherDisplay:10.37,2013-08-02 21:39:00,
2013-08-03 09:44:00,50.7,49.0,30.02,East,79,10.6,18.4,94,0.00,SCT,,0.08,125.0,WeatherDisplay:10.37,2013-08-02 21:44:00,
2013-08-03 09:49:00,50.8,49.1,30.02,ENE,62,10.0,15.0,94,0.00,SCT,,0.08,130.0,WeatherDisplay:10.37,2013-08-02 21:49:00,
2013-08-03 09:54:00,51.0,49.3,30.01,NE,50,7.9,13.8,94,0.00,SCT,,0.08,102.0,WeatherDisplay:10.37,2013-08-02 21:54:00,
2013-08-03 09:59:00,51.0,49.3,30.01,SE,126,5.9,12.7,94,0.00,SCT,,0.08,125.0,WeatherDisplay:10.37,2013-08-02 21:59:00,
2013-08-03 10:04:00,51.1,49.4,30.01,East,100,9.8,17.3,94,0.00,BKN,,0.08,114.0,WeatherDisplay:10.37,2013-08-02 22:04:00,
2013-08-03 10:09:00,51.1,49.1,30.01,East,80,8.9,16.1,93,0.00,SCT,,0.08,141.0,WeatherDisplay:10.37,2013-08-02 22:09:00,
2013-08-03 10:14:00,51.2,49.2,30.01,NE,34,8.5,13.8,93,0.00,SCT,,0.08,181.0,WeatherDisplay:10.37,2013-08-02 22:14:00,
2013-08-03 10:19:00,51.3,49.3,30.01,ENE,78,8.6,13.8,93,0.00,SCT,,0.08,186.0,WeatherDisplay:10.37,2013-08-02 22:19:00,
2013-08-03 10:24:00,51.4,49.4,30.01,East,92,7.8,11.5,93,0.00,FEW,,0.08,207.0,WeatherDisplay:10.37,2013-08-02 22:24:00,
2013-08-03 10:29:00,51.6,49.6,30.01,East,92,11.6,18.4,93,0.00,FEW,,0.08,197.0,WeatherDisplay:10.37,2013-08-02 22:29:00,
2013-08-03 10:34:00,51.7,49.5,30.01,ENE,75,8.1,13.8,92,0.00,FEW,,0.08,156.0,WeatherDisplay:10.37,2013-08-02 22:34:00,
2013-08-03 10:39:00,51.8,49.8,30.01,ESE,105,6.3,12.7,93,0.00,SCT,,0.08,165.0,WeatherDisplay:10.37,2013-08-02 22:39:00,
2013-08-03 10:44:00,51.7,49.5,30.01,ENE,71,8.0,12.0,92,0.00,SCT,,0.08,183.0,WeatherDisplay:10.37,2013-08-02 22:44:00,
2013-08-03 10:49:00,51.8,49.5,30.01,NE,56,8.8,11.5,92,0.00,SCT,,0.08,171.0,WeatherDisplay:10.37,2013-08-02 22:49:00,
2013-08-03 10:54:00,51.7,49.5,30.01,ENE,68,8.7,13.0,92,0.00,SCT,,0.08,132.0,WeatherDisplay:10.37,2013-08-02 22:54:00,
2013-08-03 10:59:00,51.6,49.6,30.01,East,81,6.7,16.1,93,0.00,SCT,,0.08,179.0,WeatherDisplay:10.37,2013-08-02 22:59:00,
2013-08-03 11:04:00,51.6,49.6,30.01,East,80,8.1,15.0,93,0.00,SCT,,0.08,149.0,WeatherDisplay:10.37,2013-08-02 23:04:00,
2013-08-03 11:09:00,51.4,49.4,30.01,ENE,61,9.9,12.7,93,0.00,SCT,,0.08,148.0,WeatherDisplay:10.37,2013-08-02 23:09:00,
2013-08-03 11:14:00,51.4,49.4,30.01,East,88,7.3,11.5,93,0.00,SCT,,0.08,169.0,WeatherDisplay:10.37,2013-08-02 23:14:00,
2013-08-03 11:19:00,51.6,49.6,30.01,SE,131,6.3,11.5,93,0.00,SCT,,0.08,193.0,WeatherDisplay:10.37,2013-08-02 23:19:00,
2013-08-03 11:24:00,51.8,49.5,30.00,NE,39,6.2,11.5,92,0.00,SCT,,0.08,211.0,WeatherDisplay:10.37,2013-08-02 23:24:00,
2013-08-03 11:29:00,52.0,49.7,30.00,ENE,61,6.8,15.0,92,0.00,SCT,,0.08,225.0,WeatherDisplay:10.37,2013-08-02 23:29:00,
2013-08-03 11:34:00,52.2,49.9,30.00,ENE,57,5.4,14.0,92,0.00,SCT,,0.08,316.0,WeatherDisplay:10.37,2013-08-02 23:34:00,
2013-08-03 11:39:00,52.3,49.8,30.00,ENE,76,10.5,19.6,91,0.00,FEW,,0.08,241.0,WeatherDisplay:10.37,2013-08-02 23:39:00,
2013-08-03 11:44:00,52.3,49.5,29.99,ENE,75,10.2,16.1,90,0.00,FEW,,0.08,251.0,WeatherDisplay:10.37,2013-08-02 23:44:00,
2013-08-03 11:49:00,52.3,49.5,29.99,ENE,65,9.0,13.8,90,0.00,SCT,,0.08,176.0,WeatherDisplay:10.37,2013-08-02 23:49:00,
2013-08-03 11:54:00,52.2,49.4,29.99,ESE,119,4.6,9.0,90,0.00,SCT,,0.08,192.0,WeatherDisplay:10.37,2013-08-02 23:54:00,
2013-08-03 11:59:00,52.3,49.5,29.98,ENE,65,11.1,15.0,90,0.00,SCT,,0.08,214.0,WeatherDisplay:10.37,2013-08-02 23:59:00,
2013-08-03 12:04:00,52.4,49.6,29.98,East,92,8.8,13.8,90,0.00,SCT,,0.08,262.0,WeatherDisplay:10.37,2013-08-03 00:04:00,
2013-08-03 12:09:00,52.5,49.4,29.98,NE,50,6.4,16.0,89,0.00,SCT,,0.08,181.0,WeatherDisplay:10.37,2013-08-03 00:09:00,
2013-08-03 12:14:00,52.5,49.7,29.98,ENE,71,4.9,18.4,90,0.00,SCT,,0.08,299.0,WeatherDisplay:10.37,2013-08-03 00:14:00,
2013-08-03 12:19:00,52.7,49.5,29.98,ENE,74,11.2,19.6,89,0.00,SCT,,0.08,232.0,WeatherDisplay:10.37,2013-08-03 00:19:00,
2013-08-03 12:24:00,52.7,49.5,29.97,ENE,65,9.3,13.8,89,0.00,SCT,,0.08,207.0,WeatherDisplay:10.37,2013-08-03 00:24:00,
2013-08-03 12:29:00,52.5,49.4,29.97,East,84,7.1,15.0,89,0.00,SCT,,0.08,199.0,WeatherDisplay:10.37,2013-08-03 00:29:00,
2013-08-03 12:34:00,52.5,49.4,29.97,NE,54,9.7,13.8,89,0.00,SCT,,0.08,236.0,WeatherDisplay:10.37,2013-08-03 00:34:00,
2013-08-03 12:39:00,52.8,49.6,29.97,ENE,59,9.6,18.4,89,0.00,SCT,,0.08,255.0,WeatherDisplay:10.37,2013-08-03 00:39:00,
2013-08-03 12:44:00,53.0,49.8,29.96,ENE,67,8.1,16.0,89,0.00,FEW,,0.08,315.0,WeatherDisplay:10.37,2013-08-03 00:44:00,
2013-08-03 12:49:00,53.2,50.0,29.96,NE,44,4.9,5.8,89,0.00,FEW,,0.08,294.0,WeatherDisplay:10.37,2013-08-03 00:49:00,
2013-08-03 12:54:00,53.4,49.9,29.96,ENE,63,8.2,15.0,88,0.00,FEW,,0.08,295.0,WeatherDisplay:10.37,2013-08-03 00:54:00,
2013-08-03 12:59:00,53.0,49.2,29.95,ENE,67,13.8,21.9,87,0.00,FEW,,0.08,359.0,WeatherDisplay:10.37,2013-08-03 00:59:00,
2013-08-03 13:04:00,53.3,49.8,29.95,ENE,68,13.5,19.6,88,0.00,FEW,,0.08,272.0,WeatherDisplay:10.37,2013-08-03 01:04:00,
2013-08-03 13:09:00,53.1,49.6,29.95,ENE,64,10.5,16.1,88,0.00,FEW,,0.08,371.0,WeatherDisplay:10.37,2013-08-03 01:09:00,
2013-08-03 13:14:00,53.0,49.5,29.94,ENE,57,12.1,17.3,88,0.00,FEW,,0.08,241.0,WeatherDisplay:10.37,2013-08-03 01:14:00,
2013-08-03 13:19:00,53.0,49.5,29.94,East,96,11.2,16.1,88,0.00,FEW,,0.08,248.0,WeatherDisplay:10.37,2013-08-03 01:19:00,
2013-08-03 13:24:00,53.1,49.6,29.94,ENE,78,11.1,16.1,88,0.00,FEW,,0.08,274.0,WeatherDisplay:10.37,2013-08-03 01:24:00,
2013-08-03 13:29:00,53.1,49.6,29.94,NE,51,11.3,19.6,88,0.00,FEW,,0.08,179.0,WeatherDisplay:10.37,2013-08-03 01:29:00,
2013-08-03 13:34:00,52.9,49.4,29.94,NE,41,10.5,13.8,88,0.00,SCT,,0.08,272.0,WeatherDisplay:10.37,2013-08-03 01:34:00,
2013-08-03 13:39:00,52.9,49.4,29.93,NE,34,5.4,13.0,88,0.00,SCT,,0.08,230.0,WeatherDisplay:10.37,2013-08-03 01:39:00,
2013-08-03 13:44:00,53.1,49.6,29.93,ENE,58,9.8,20.7,88,0.00,SCT,,0.08,214.0,WeatherDisplay:10.37,2013-08-03 01:44:00,
2013-08-03 13:49:00,53.1,49.6,29.93,East,86,9.6,19.0,88,0.00,FEW,,0.08,225.0,WeatherDisplay:10.37,2013-08-03 01:49:00,
2013-08-03 13:54:00,53.0,49.5,29.93,East,84,9.2,23.0,88,0.00,SCT,,0.08,246.0,WeatherDisplay:10.37,2013-08-03 01:54:00,
2013-08-03 13:59:00,53.1,49.6,29.93,ENE,59,12.3,19.6,88,0.00,SCT,,0.08,276.0,WeatherDisplay:10.37,2013-08-03 01:59:00,
2013-08-03 14:04:00,53.0,49.5,29.92,East,92,10.6,15.0,88,0.00,FEW,,0.08,200.0,WeatherDisplay:10.37,2013-08-03 02:04:00,
2013-08-03 14:09:00,53.1,49.6,29.92,NE,34,11.5,16.1,88,0.00,FEW,,0.08,230.0,WeatherDisplay:10.37,2013-08-03 02:09:00,
2013-08-03 14:14:00,52.9,49.4,29.92,NE,49,11.6,16.1,88,0.00,SCT,,0.08,285.0,WeatherDisplay:10.37,2013-08-03 02:14:00,
2013-08-03 14:19:00,53.0,49.5,29.92,East,83,10.5,17.3,88,0.00,SCT,,0.08,206.0,WeatherDisplay:10.37,2013-08-03 02:19:00,
2013-08-03 14:24:00,52.9,49.4,29.92,NE,56,10.3,15.0,88,0.00,FEW,,0.08,248.0,WeatherDisplay:10.37,2013-08-03 02:24:00,
2013-08-03 14:29:00,52.9,49.7,29.92,ENE,75,8.8,13.8,89,0.00,FEW,,0.08,188.0,WeatherDisplay:10.37,2013-08-03 02:29:00,
2013-08-03 14:34:00,52.9,49.4,29.92,NE,56,10.0,13.8,88,0.00,SCT,,0.08,158.0,WeatherDisplay:10.37,2013-08-03 02:34:00,
2013-08-03 14:39:00,52.7,49.5,29.91,ENE,63,8.0,13.8,89,0.00,SCT,,0.08,142.0,WeatherDisplay:10.37,2013-08-03 02:39:00,
2013-08-03 14:44:00,52.6,49.4,29.91,NE,53,9.8,17.0,89,0.00,SCT,,0.08,130.0,WeatherDisplay:10.37,2013-08-03 02:44:00,
2013-08-03 14:49:00,52.5,49.4,29.91,East,96,9.2,12.7,89,0.00,SCT,,0.08,121.0,WeatherDisplay:10.37,2013-08-03 02:49:00,
2013-08-03 14:54:00,52.5,49.4,29.91,ENE,65,10.5,13.8,89,0.00,BKN,,0.08,132.0,WeatherDisplay:10.37,2013-08-03 02:54:00,
2013-08-03 14:59:00,52.5,49.4,29.90,ENE,66,8.9,14.0,89,0.00,SCT,,0.08,192.0,WeatherDisplay:10.37,2013-08-03 02:59:00,
2013-08-03 15:04:00,52.5,49.4,29.90,East,88,12.5,18.4,89,0.00,SCT,,0.08,128.0,WeatherDisplay:10.37,2013-08-03 03:04:00,
2013-08-03 15:09:00,52.4,49.3,29.90,ENE,67,9.5,13.8,89,0.00,SCT,,0.08,146.0,WeatherDisplay:10.37,2013-08-03 03:09:00,
2013-08-03 15:14:00,52.5,49.7,29.90,East,87,8.8,11.5,90,0.00,FEW,,0.08,220.0,WeatherDisplay:10.37,2013-08-03 03:14:00,
2013-08-03 15:19:00,52.7,50.4,29.90,East,79,6.4,12.7,92,0.00,FEW,,0.08,178.0,WeatherDisplay:10.37,2013-08-03 03:19:00,
2013-08-03 15:24:00,52.5,49.4,29.90,ENE,62,6.4,11.5,89,0.00,FEW,,0.08,121.0,WeatherDisplay:10.37,2013-08-03 03:24:00,
2013-08-03 15:29:00,52.4,49.3,29.90,ENE,67,7.8,16.0,89,0.00,FEW,,0.08,142.0,WeatherDisplay:10.37,2013-08-03 03:29:00,
2013-08-03 15:34:00,52.4,49.3,29.89,SSE,155,12.0,17.3,89,0.00,FEW,,0.08,271.0,WeatherDisplay:10.37,2013-08-03 03:34:00,
2013-08-03 15:39:00,52.7,50.4,29.89,NNE,30,11.4,23.0,92,0.00,FEW,,0.08,362.0,WeatherDisplay:10.37,2013-08-03 03:39:00,
2013-08-03 15:44:00,52.7,49.5,29.89,ENE,72,7.0,13.8,89,0.00,CLR,,0.08,171.0,WeatherDisplay:10.37,2013-08-03 03:44:00,
2013-08-03 15:49:00,52.5,49.4,29.89,ENE,74,10.1,19.6,89,0.00,FEW,,0.08,127.0,WeatherDisplay:10.37,2013-08-03 03:49:00,
2013-08-03 15:54:00,52.3,49.2,29.89,East,82,7.7,19.6,89,0.00,FEW,,0.08,98.0,WeatherDisplay:10.37,2013-08-03 03:54:00,
2013-08-03 15:59:00,52.1,49.0,29.89,East,90,8.8,18.4,89,0.00,FEW,,0.08,123.0,WeatherDisplay:10.37,2013-08-03 03:59:00,
2013-08-03 16:01:00,52.1,49.0,29.89,East,95,7.5,16.1,89,0.00,FEW,,0.08,130.0,WeatherDisplay:10.37,2013-08-03 04:01:00,
2013-08-03 16:02:00,52.1,49.0,29.89,ENE,74,11.1,17.0,89,0.00,FEW,,0.08,120.0,WeatherDisplay:10.37,2013-08-03 04:02:00,
2013-08-03 16:08:00,52.0,49.2,29.89,ENE,74,7.9,17.0,90,0.00,FEW,,0.08,105.0,WeatherDisplay:10.37,2013-08-03 04:08:00,
2013-08-03 16:13:00,52.1,49.3,29.89,East,82,7.0,11.0,90,0.00,FEW,,0.08,113.0,WeatherDisplay:10.37,2013-08-03 04:13:00,
2013-08-03 16:18:00,52.2,49.4,29.89,NE,56,9.6,16.1,90,0.00,FEW,,0.08,109.0,WeatherDisplay:10.37,2013-08-03 04:18:00,
2013-08-03 16:23:00,52.1,49.3,29.89,NE,51,9.6,13.8,90,0.00,FEW,,0.08,100.0,WeatherDisplay:10.37,2013-08-03 04:23:00,
2013-08-03 16:28:00,52.0,49.2,29.89,East,82,9.4,18.4,90,0.00,FEW,,0.08,76.0,WeatherDisplay:10.37,2013-08-03 04:28:00,
2013-08-03 16:33:00,52.0,49.2,29.89,ESE,106,7.8,16.1,90,0.00,FEW,,0.08,81.0,WeatherDisplay:10.37,2013-08-03 04:33:00,
2013-08-03 16:38:00,52.0,49.2,29.89,ESE,103,8.4,11.5,90,0.00,SCT,,0.08,51.0,WeatherDisplay:10.37,2013-08-03 04:38:00,
2013-08-03 16:43:00,51.9,49.4,29.89,ENE,61,8.0,10.4,91,0.00,SCT,,0.08,51.0,WeatherDisplay:10.37,2013-08-03 04:43:00,
2013-08-03 16:48:00,51.8,49.3,29.89,ENE,66,5.5,15.0,91,0.00,SCT,,0.08,33.0,WeatherDisplay:10.37,2013-08-03 04:48:00,
2013-08-03 16:53:00,51.6,49.1,29.88,NE,49,6.6,12.7,91,0.00,SCT,,0.08,40.0,WeatherDisplay:10.37,2013-08-03 04:53:00,
2013-08-03 16:58:00,51.6,49.1,29.89,NNE,18,7.5,11.5,91,0.00,BKN,,0.08,18.0,WeatherDisplay:10.37,2013-08-03 04:58:00,
2013-08-03 17:03:00,51.5,49.0,29.89,ENE,74,6.9,15.0,91,0.00,BKN,,0.08,16.0,WeatherDisplay:10.37,2013-08-03 05:03:00,
2013-08-03 17:08:00,51.5,49.0,29.89,NE,53,10.6,15.0,91,0.00,BKN,,0.08,16.0,WeatherDisplay:10.37,2013-08-03 05:08:00,
2013-08-03 17:13:00,51.5,49.0,29.88,East,92,7.2,12.7,91,0.00,BKN,,0.08,12.0,WeatherDisplay:10.37,2013-08-03 05:13:00,
2013-08-03 17:18:00,51.4,48.9,29.88,ENE,69,10.5,15.0,91,0.00,BKN,,0.08,9.0,WeatherDisplay:10.37,2013-08-03 05:18:00,
2013-08-03 17:23:00,51.4,48.9,29.88,NNE,33,7.2,11.5,91,0.00,SCT,,0.08,11.0,WeatherDisplay:10.37,2013-08-03 05:23:00,
2013-08-03 17:28:00,51.4,48.9,29.88,NE,41,10.2,13.8,91,0.00,SCT,,0.08,5.0,WeatherDisplay:10.37,2013-08-03 05:28:00,
2013-08-03 17:32:00,51.3,48.8,29.88,NE,46,9.6,16.1,91,0.00,OVC,,0.08,0.0,WeatherDisplay:10.37,2013-08-03 05:32:00,
2013-08-03 17:37:00,51.3,48.8,29.88,NE,55,4.6,10.4,91,0.00,OVC,,0.08,0.0,WeatherDisplay:10.37,2013-08-03 05:37:00,
2013-08-03 17:43:00,51.2,49.0,29.88,NE,44,6.4,12.0,92,0.00,OVC,,0.08,0.0,WeatherDisplay:10.37,2013-08-03 05:43:00,
2013-08-03 17:48:00,51.2,49.0,29.88,East,90,8.0,8.0,92,0.00,OVC,,0.08,0.0,WeatherDisplay:10.37,2013-08-03 05:48:00,
2013-08-03 17:53:00,51.1,48.9,29.89,ENE,78,7.6,13.8,92,0.00,OVC,,0.08,0.0,WeatherDisplay:10.37,2013-08-03 05:53:00,
2013-08-03 17:58:00,51.1,48.9,29.89,East,98,5.5,13.8,92,0.00,OVC,,0.08,0.0,WeatherDisplay:10.37,2013-08-03 05:58:00,
2013-08-03 18:03:00,51.1,48.9,29.89,ENE,68,5.3,14.0,92,0.00,CLR,,0.08,0.0,WeatherDisplay:10.37,2013-08-03 06:03:00,
2013-08-03 18:08:00,51.1,48.9,29.89,ENE,57,3.7,10.4,92,0.00,CLR,,0.08,0.0,WeatherDisplay:10.37,2013-08-03 06:08:00,
2013-08-03 18:12:00,51.1,48.9,29.89,ENE,75,7.9,12.7,92,0.00,CLR,,0.08,0.0,WeatherDisplay:10.37,2013-08-03 06:12:00,
2013-08-03 18:18:00,51.1,48.9,29.89,East,87,7.1,15.0,92,0.00,CLR,,0.08,0.0,WeatherDisplay:10.37,2013-08-03 06:18:00,
2013-08-03 18:23:00,51.1,48.9,29.89,NE,49,6.0,10.4,92,0.00,CLR,,0.08,0.0,WeatherDisplay:10.37,2013-08-03 06:23:00,
2013-08-03 18:28:00,51.0,48.8,29.89,ENE,65,7.7,15.0,92,0.00,CLR,,0.08,0.0,WeatherDisplay:10.37,2013-08-03 06:28:00,
2013-08-03 18:32:00,51.0,49.0,29.89,NNE,26,7.8,10.4,93,0.00,CLR,,0.08,0.0,WeatherDisplay:10.37,2013-08-03 06:32:00,
2013-08-03 18:38:00,51.0,49.0,29.89,ENE,65,8.6,11.5,93,0.00,CLR,,0.08,0.0,WeatherDisplay:10.37,2013-08-03 06:38:00,
2013-08-03 18:43:00,51.0,49.0,29.89,ENE,76,6.9,11.5,93,0.00,CLR,,0.08,0.0,WeatherDisplay:10.37,2013-08-03 06:43:00,
2013-08-03 18:48:00,51.0,49.0,29.89,ENE,67,6.1,13.8,93,0.00,CLR,,0.08,0.0,WeatherDisplay:10.37,2013-08-03 06:48:00,
2013-08-03 18:53:00,51.1,49.1,29.89,East,80,9.5,11.5,93,0.00,CLR,,0.08,0.0,WeatherDisplay:10.37,2013-08-03 06:53:00,
2013-08-03 18:57:00,51.0,49.0,29.89,NE,55,7.0,15.0,93,0.00,CLR,,0.08,0.0,WeatherDisplay:10.37,2013-08-03 06:57:00,
2013-08-03 19:03:00,51.0,49.0,29.89,ENE,64,4.1,11.5,93,0.00,CLR,,0.08,0.0,WeatherDisplay:10.37,2013-08-03 07:03:00,
2013-08-03 19:08:00,51.0,49.0,29.90,East,82,4.3,11.5,93,0.00,CLR,,0.08,0.0,WeatherDisplay:10.37,2013-08-03 07:08:00,
2013-08-03 19:13:00,51.0,49.0,29.90,ENE,65,7.0,13.8,93,0.00,CLR,,0.08,0.0,WeatherDisplay:10.37,2013-08-03 07:13:00,
2013-08-03 19:18:00,51.1,48.9,29.90,East,88,5.3,5.8,92,0.00,CLR,,0.08,0.0,WeatherDisplay:10.37,2013-08-03 07:18:00,
2013-08-03 19:23:00,51.1,48.9,29.90,ENE,76,10.8,17.0,92,0.00,CLR,,0.08,0.0,WeatherDisplay:10.37,2013-08-03 07:23:00,
2013-08-03 19:28:00,51.2,49.0,29.89,NE,51,7.6,11.0,92,0.00,CLR,,0.08,0.0,WeatherDisplay:10.37,2013-08-03 07:28:00,
2013-08-03 19:33:00,51.2,49.0,29.89,East,86,6.0,11.5,92,0.00,CLR,,0.08,0.0,WeatherDisplay:10.37,2013-08-03 07:33:00,
2013-08-03 19:38:00,51.2,49.0,29.89,NE,47,6.4,10.4,92,0.00,CLR,,0.08,0.0,WeatherDisplay:10.37,2013-08-03 07:38:00,
2013-08-03 19:42:00,51.2,49.0,29.89,ENE,64,4.3,15.0,92,0.00,CLR,,0.08,0.0,WeatherDisplay:10.37,2013-08-03 07:42:00,
2013-08-03 19:48:00,51.1,48.9,29.89,East,92,9.6,16.1,92,0.00,CLR,,0.08,0.0,WeatherDisplay:10.37,2013-08-03 07:48:00,
2013-08-03 19:53:00,51.1,48.9,29.89,ENE,63,8.2,11.5,92,0.00,CLR,,0.08,0.0,WeatherDisplay:10.37,2013-08-03 07:53:00,
2013-08-03 19:58:00,51.1,48.9,29.89,ENE,74,4.4,18.4,92,0.00,CLR,,0.08,0.0,WeatherDisplay:10.37,2013-08-03 07:58:00,
2013-08-03 20:03:00,51.1,49.1,29.89,NE,48,4.8,11.5,93,0.00,CLR,,0.08,0.0,WeatherDisplay:10.37,2013-08-03 08:03:00,
2013-08-03 20:08:00,51.0,49.0,29.89,ENE,64,6.6,11.5,93,0.00,CLR,,0.08,0.0,WeatherDisplay:10.37,2013-08-03 08:08:00,
2013-08-03 20:13:00,51.0,49.0,29.89,NE,42,10.7,18.0,93,0.00,CLR,,0.08,0.0,WeatherDisplay:10.37,2013-08-03 08:13:00,
2013-08-03 20:18:00,51.0,49.0,29.89,ENE,59,5.1,12.7,93,0.00,CLR,,0.08,0.0,WeatherDisplay:10.37,2013-08-03 08:18:00,
2013-08-03 20:23:00,51.0,49.0,29.89,NE,48,8.0,11.5,93,0.00,CLR,,0.08,0.0,WeatherDisplay:10.37,2013-08-03 08:23:00,
2013-08-03 20:27:00,51.0,49.0,29.89,East,93,5.0,13.8,93,0.00,CLR,,0.08,0.0,WeatherDisplay:10.37,2013-08-03 08:27:00,
2013-08-03 20:33:00,50.9,48.9,29.89,NE,55,8.3,15.0,93,0.00,CLR,,0.08,0.0,WeatherDisplay:10.37,2013-08-03 08:33:00,
2013-08-03 20:38:00,50.9,48.9,29.89,East,80,9.9,13.8,93,0.00,CLR,,0.08,0.0,WeatherDisplay:10.37,2013-08-03 08:38:00,
2013-08-03 20:43:00,50.9,48.9,29.89,East,87,6.4,13.8,93,0.00,CLR,,0.08,0.0,WeatherDisplay:10.37,2013-08-03 08:43:00,
2013-08-03 20:47:00,50.9,48.9,29.89,NE,45,5.1,11.5,93,0.00,CLR,,0.08,0.0,WeatherDisplay:10.37,2013-08-03 08:47:00,
2013-08-03 20:52:00,50.8,48.8,29.89,East,96,8.8,13.8,93,0.00,CLR,,0.08,0.0,WeatherDisplay:10.37,2013-08-03 08:52:00,
2013-08-03 20:58:00,50.8,48.8,29.89,East,84,4.9,11.5,93,0.00,CLR,,0.08,0.0,WeatherDisplay:10.37,2013-08-03 08:58:00,
2013-08-03 21:03:00,50.8,48.8,29.89,NE,53,8.7,10.4,93,0.00,CLR,,0.08,0.0,WeatherDisplay:10.37,2013-08-03 09:03:00,
2013-08-03 21:07:00,50.9,48.9,29.89,NE,47,3.3,11.5,93,0.00,CLR,,0.08,0.0,WeatherDisplay:10.37,2013-08-03 09:07:00,
2013-08-03 21:12:00,50.8,48.8,29.89,ENE,65,5.0,11.5,93,0.00,CLR,,0.08,0.0,WeatherDisplay:10.37,2013-08-03 09:12:00,
2013-08-03 21:18:00,50.9,48.9,29.89,ENE,71,6.7,11.5,93,0.00,CLR,,0.08,0.0,WeatherDisplay:10.37,2013-08-03 09:18:00,
2013-08-03 21:23:00,50.8,48.8,29.89,ENE,60,8.8,12.7,93,0.00,CLR,,0.08,0.0,WeatherDisplay:10.37,2013-08-03 09:23:00,
2013-08-03 21:28:00,50.9,48.9,29.89,NE,50,6.3,15.0,93,0.00,CLR,,0.08,0.0,WeatherDisplay:10.37,2013-08-03 09:28:00,
2013-08-03 21:33:00,50.8,48.6,29.89,East,99,7.9,10.4,92,0.00,CLR,,0.08,0.0,WeatherDisplay:10.37,2013-08-03 09:33:00,
2013-08-03 21:38:00,50.9,48.7,29.89,NNE,19,9.2,16.1,92,0.00,CLR,,0.08,0.0,WeatherDisplay:10.37,2013-08-03 09:38:00,
2013-08-03 21:43:00,50.8,48.6,29.89,NE,45,8.1,19.6,92,0.00,CLR,,0.08,0.0,WeatherDisplay:10.37,2013-08-03 09:43:00,
2013-08-03 21:48:00,50.9,48.7,29.89,ENE,71,9.1,18.4,92,0.00,CLR,,0.08,0.0,WeatherDisplay:10.37,2013-08-03 09:48:00,
2013-08-03 21:53:00,50.8,48.6,29.89,NE,52,6.0,12.0,92,0.00,CLR,,0.08,0.0,WeatherDisplay:10.37,2013-08-03 09:53:00,
2013-08-03 21:58:00,50.8,48.6,29.89,NE,55,5.6,10.4,92,0.00,CLR,,0.08,0.0,WeatherDisplay:10.37,2013-08-03 09:58:00,
2013-08-03 22:03:00,50.8,48.6,29.89,ENE,61,6.3,11.5,92,0.00,CLR,,0.08,0.0,WeatherDisplay:10.37,2013-08-03 10:03:00,
2013-08-03 22:08:00,50.8,48.6,29.89,NE,48,8.8,13.8,92,0.00,CLR,,0.08,0.0,WeatherDisplay:10.37,2013-08-03 10:08:00,
2013-08-03 22:13:00,50.8,48.6,29.88,East,82,9.1,18.4,92,0.00,CLR,,0.08,0.0,WeatherDisplay:10.37,2013-08-03 10:13:00,
2013-08-03 22:18:00,50.8,48.6,29.88,East,80,8.2,12.7,92,0.00,CLR,,0.08,0.0,WeatherDisplay:10.37,2013-08-03 10:18:00,
2013-08-03 22:23:00,50.7,48.5,29.88,East,81,9.4,17.3,92,0.00,CLR,,0.08,0.0,WeatherDisplay:10.37,2013-08-03 10:23:00,
2013-08-03 22:28:00,50.7,48.5,29.88,NE,46,9.7,18.4,92,0.00,CLR,,0.08,0.0,WeatherDisplay:10.37,2013-08-03 10:28:00,
2013-08-03 22:33:00,50.6,48.4,29.88,ENE,67,8.4,13.8,92,0.00,CLR,,0.08,0.0,WeatherDisplay:10.37,2013-08-03 10:33:00,
2013-08-03 22:38:00,50.6,48.4,29.88,ESE,110,5.9,11.5,92,0.00,CLR,,0.08,0.0,WeatherDisplay:10.37,2013-08-03 10:38:00,
2013-08-03 22:43:00,50.4,48.2,29.88,NE,46,8.3,11.5,92,0.00,CLR,,0.08,0.0,WeatherDisplay:10.37,2013-08-03 10:43:00,
2013-08-03 22:48:00,50.4,48.2,29.88,ENE,74,9.3,15.0,92,0.00,CLR,,0.08,0.0,WeatherDisplay:10.37,2013-08-03 10:48:00,
2013-08-03 22:53:00,50.4,48.2,29.88,East,83,5.2,8.1,92,0.00,CLR,,0.08,0.0,WeatherDisplay:10.37,2013-08-03 10:53:00,
2013-08-03 22:58:00,50.4,48.2,29.88,NE,48,9.4,14.0,92,0.00,CLR,,0.08,0.0,WeatherDisplay:10.37,2013-08-03 10:58:00,
2013-08-03 23:03:00,50.4,48.2,29.87,NE,51,8.6,12.7,92,0.00,CLR,,0.08,0.0,WeatherDisplay:10.37,2013-08-03 11:03:00,
2013-08-03 23:08:00,50.3,48.1,29.88,NE,55,8.0,11.5,92,0.00,CLR,,0.08,0.0,WeatherDisplay:10.37,2013-08-03 11:08:00,
2013-08-03 23:13:00,50.2,48.0,29.87,NE,40,6.8,11.0,92,0.00,CLR,,0.08,0.0,WeatherDisplay:10.37,2013-08-03 11:13:00,
2013-08-03 23:18:00,50.2,48.3,29.87,ENE,68,7.0,11.5,93,0.00,CLR,,0.08,0.0,WeatherDisplay:10.37,2013-08-03 11:18:00,
2013-08-03 23:23:00,50.1,48.2,29.87,East,91,6.0,12.0,93,0.00,CLR,,0.08,0.0,WeatherDisplay:10.37,2013-08-03 11:23:00,
2013-08-03 23:28:00,50.1,48.2,29.87,East,80,5.0,10.4,93,0.00,CLR,,0.08,0.0,WeatherDisplay:10.37,2013-08-03 11:28:00,
2013-08-03 23:33:00,50.2,48.3,29.87,ENE,62,9.1,15.0,93,0.00,CLR,,0.08,0.0,WeatherDisplay:10.37,2013-08-03 11:33:00,
2013-08-03 23:38:00,50.3,48.4,29.86,East,93,9.4,18.4,93,0.00,CLR,,0.08,0.0,WeatherDisplay:10.37,2013-08-03 11:38:00,
2013-08-03 23:43:00,50.3,48.4,29.86,ENE,68,8.2,12.7,93,0.00,CLR,,0.08,0.0,WeatherDisplay:10.37,2013-08-03 11:43:00,
2013-08-03 23:48:00,50.3,48.4,29.86,ESE,105,5.1,9.2,93,0.00,CLR,,0.08,0.0,WeatherDisplay:10.37,2013-08-03 11:48:00,
2013-08-03 23:53:00,50.4,48.5,29.87,East,96,6.0,8.1,93,0.00,CLR,,0.08,0.0,WeatherDisplay:10.37,2013-08-03 11:53:00,
2013-08-03 23:58:00,50.6,48.7,29.86,ENE,76,7.5,13.8,93,0.00,CLR,,0.08,0.0,WeatherDisplay:10.37,2013-08-03 11:58:00,